Time;durP1;ratioP1;P1;durP2;ratioP2;P2;SDS_P1;SDS_P2;PMS_P1;PMS_P2;Temp;Humidity;BMP_temperature;BMP_pressure;BME280_temperature;BME280_humidity;BME280_pressure;Samples;Min_cycle;Max_cycle;Signal;HPM_P1;HPM_P2
2022/04/06 00:01:47;;;;;;;2.70;2.30;;;10.90;99.90;;;;;;7392834;19;20139;-79
2022/04/06 00:04:14;;;;;;;3.50;2.73;;;10.90;99.90;;;;;;7391700;19;20481;-79
2022/04/06 00:06:39;;;;;;;2.43;2.23;;;11.00;99.90;;;;;;7389448;19;20254;-80
2022/04/06 00:09:05;;;;;;;2.63;2.20;;;10.90;99.90;;;;;;7392822;19;20135;-79
2022/04/06 00:11:32;;;;;;;2.40;2.20;;;10.90;99.90;;;;;;7393313;19;20127;-79
2022/04/06 00:13:59;;;;;;;3.23;2.37;;;10.90;99.90;;;;;;7393798;19;20158;-80
2022/04/06 00:16:25;;;;;;;3.67;2.23;;;10.80;99.90;;;;;;7396168;19;20166;-80
2022/04/06 00:18:51;;;;;;;3.43;2.33;;;10.90;99.90;;;;;;7394573;19;20147;-80
2022/04/06 00:21:17;;;;;;;3.27;1.97;;;10.90;99.90;;;;;;7391277;19;20840;-80
2022/04/06 00:23:44;;;;;;;2.57;2.37;;;10.90;99.90;;;;;;7390332;19;20176;-79
2022/04/06 00:26:09;;;;;;;3.83;2.50;;;10.90;99.90;;;;;;7390666;19;20147;-79
2022/04/06 00:28:36;;;;;;;3.10;2.80;;;10.90;99.90;;;;;;7394139;19;20180;-80
2022/04/06 00:31:03;;;;;;;3.87;2.30;;;10.80;99.90;;;;;;7390904;19;20148;-80
2022/04/06 00:33:28;;;;;;;3.00;2.20;;;10.80;99.90;;;;;;7391540;19;20650;-79
2022/04/06 00:35:56;;;;;;;2.83;2.30;;;10.80;99.90;;;;;;7395255;19;20153;-80
2022/04/06 00:38:22;;;;;;;3.47;2.20;;;10.90;99.90;;;;;;7395671;19;20214;-79
2022/04/06 00:40:48;;;;;;;4.63;2.13;;;10.90;99.90;;;;;;7389090;19;20157;-81
2022/04/06 00:43:14;;;;;;;2.40;2.20;;;10.90;99.90;;;;;;7388732;19;20146;-80
2022/04/06 00:45:41;;;;;;;4.53;2.50;;;10.90;99.90;;;;;;7387135;19;20135;-81
2022/04/06 00:48:08;;;;;;;2.50;2.20;;;11.00;99.90;;;;;;7391542;19;20166;-80
2022/04/06 00:50:35;;;;;;;4.30;2.20;;;11.10;99.90;;;;;;7388038;19;20151;-80
2022/04/06 00:53:01;;;;;;;3.77;2.53;;;11.30;99.90;;;;;;7388865;19;20127;-80
2022/04/06 00:55:35;;;;;;;3.77;2.37;;;11.10;99.90;;;;;;7388620;19;20131;-81
2022/04/06 00:58:02;;;;;;;5.30;2.40;;;11.10;99.90;;;;;;7406235;19;20137;-80
2022/04/06 01:00:29;;;;;;;2.80;2.23;;;11.00;99.90;;;;;;7389104;19;20145;-80
2022/04/06 01:02:55;;;;;;;2.80;2.30;;;11.00;99.90;;;;;;7388095;19;20579;-80
2022/04/06 01:05:21;;;;;;;2.80;2.47;;;11.00;99.90;;;;;;7391009;19;20134;-79
2022/04/06 01:07:53;;;;;;;2.73;2.20;;;10.90;99.90;;;;;;7387744;19;20613;-81
2022/04/06 01:10:19;;;;;;;2.80;2.30;;;11.00;99.90;;;;;;7389800;19;20138;-80
2022/04/06 01:12:46;;;;;;;5.20;2.23;;;10.90;99.90;;;;;;7389155;19;20125;-81
2022/04/06 01:15:13;;;;;;;2.33;2.13;;;10.90;99.90;;;;;;7391132;19;20170;-80
2022/04/06 01:17:39;;;;;;;3.27;2.47;;;10.90;99.90;;;;;;7393235;19;20143;-80
2022/04/06 01:20:07;;;;;;;3.67;2.70;;;10.90;99.90;;;;;;7397876;19;20881;-80
2022/04/06 01:22:34;;;;;;;6.27;2.10;;;11.00;99.90;;;;;;7389465;19;20138;-80
2022/04/06 01:25:01;;;;;;;4.93;2.70;;;11.00;99.90;;;;;;7389002;19;20206;-80
2022/04/06 01:27:27;;;;;;;2.73;2.53;;;11.00;99.90;;;;;;7391252;19;20142;-79
2022/04/06 01:29:54;;;;;;;3.10;2.23;;;11.00;99.90;;;;;;7387054;19;20166;-81
2022/04/06 01:32:32;;;;;;;3.50;2.70;;;11.00;99.90;;;;;;7391345;19;20139;-81
2022/04/06 01:34:58;;;;;;;2.50;2.30;;;11.00;99.90;;;;;;7391694;19;20143;-80
2022/04/06 01:37:24;;;;;;;4.73;2.73;;;11.10;99.90;;;;;;7388733;19;20241;-81
2022/04/06 01:39:51;;;;;;;3.03;2.23;;;11.10;99.90;;;;;;7393128;19;20150;-79
2022/04/06 01:42:19;;;;;;;2.63;2.07;;;11.10;99.90;;;;;;7397162;19;20138;-80
2022/04/06 01:44:46;;;;;;;5.33;2.77;;;11.10;99.90;;;;;;7389024;19;20134;-80
2022/04/06 01:47:17;;;;;;;2.80;2.30;;;11.00;99.90;;;;;;7393644;19;20147;-80
2022/04/06 01:52:28;;;;;;;5.17;2.87;;;11.00;99.90;;;;;;7389233;19;20147;-80
2022/04/06 01:55:03;;;;;;;4.63;2.30;;;11.00;99.90;;;;;;7386740;19;20123;-80
2022/04/06 01:57:31;;;;;;;2.53;2.30;;;10.90;99.90;;;;;;7388860;19;20146;-81
2022/04/06 01:59:57;;;;;;;2.60;2.10;;;11.00;99.90;;;;;;7389843;19;20536;-80
2022/04/06 02:02:25;;;;;;;3.20;2.60;;;11.00;99.90;;;;;;7397625;19;20141;-80
2022/04/06 02:04:51;;;;;;;3.00;2.53;;;11.00;99.90;;;;;;7387421;19;20150;-80
2022/04/06 02:07:17;;;;;;;3.73;2.23;;;11.00;99.90;;;;;;7387279;19;20141;-81
2022/04/06 02:09:43;;;;;;;3.60;2.40;;;11.10;99.90;;;;;;7396274;19;20135;-79
2022/04/06 02:12:11;;;;;;;3.17;2.30;;;11.10;99.90;;;;;;7396136;19;20149;-80
2022/04/06 02:14:39;;;;;;;2.47;2.13;;;11.10;99.90;;;;;;7396556;19;20155;-79
2022/04/06 02:17:06;;;;;;;3.43;2.50;;;11.00;99.90;;;;;;7394766;19;20137;-80
2022/04/06 02:19:32;;;;;;;2.83;2.40;;;11.10;99.90;;;;;;7396178;19;20149;-80
2022/04/06 02:21:58;;;;;;;3.03;2.50;;;11.00;99.90;;;;;;7400095;19;20154;-79
2022/04/06 02:24:24;;;;;;;3.73;2.50;;;11.00;99.90;;;;;;7400645;19;20139;-80
2022/04/06 02:26:50;;;;;;;3.93;2.97;;;10.90;99.90;;;;;;7392743;19;20168;-80
2022/04/06 02:29:16;;;;;;;5.47;2.57;;;11.00;99.90;;;;;;7393204;19;20653;-80
2022/04/06 02:31:42;;;;;;;3.77;2.73;;;11.10;99.90;;;;;;7400385;19;20130;-80
2022/04/06 02:34:08;;;;;;;4.57;2.10;;;11.10;99.90;;;;;;7396361;19;20142;-81
2022/04/06 02:36:34;;;;;;;3.03;2.43;;;11.00;99.90;;;;;;7401497;19;20751;-80
2022/04/06 02:39:00;;;;;;;3.90;2.60;;;10.90;99.90;;;;;;7394719;19;20195;-80
2022/04/06 02:41:27;;;;;;;5.57;2.67;;;11.00;99.90;;;;;;7398998;19;20138;-81
2022/04/06 02:43:53;;;;;;;3.40;2.30;;;11.00;99.90;;;;;;7403813;19;20135;-81
2022/04/06 02:46:18;;;;;;;3.20;2.40;;;11.00;99.90;;;;;;7393038;19;20154;-80
2022/04/06 02:48:45;;;;;;;5.10;2.60;;;11.00;99.90;;;;;;7394705;19;20139;-80
2022/04/06 02:51:11;;;;;;;5.37;2.67;;;11.00;99.90;;;;;;7393672;19;20174;-81
2022/04/06 02:53:37;;;;;;;4.33;2.17;;;11.00;99.90;;;;;;7394319;19;20222;-79
2022/04/06 02:56:03;;;;;;;7.90;2.57;;;10.90;99.90;;;;;;7400779;19;20131;-79
2022/04/06 02:58:28;;;;;;;5.23;2.70;;;10.90;99.90;;;;;;7392823;19;20134;-79
2022/04/06 03:00:56;;;;;;;6.27;2.50;;;10.90;99.90;;;;;;7393214;19;20150;-79
2022/04/06 03:03:23;;;;;;;3.57;2.43;;;10.90;99.90;;;;;;7393313;19;20487;-80
2022/04/06 03:05:48;;;;;;;2.90;2.60;;;11.00;99.90;;;;;;7398070;19;20154;-80
2022/04/06 03:08:15;;;;;;;5.13;2.57;;;10.90;99.90;;;;;;7394983;19;20131;-80
2022/04/06 03:10:41;;;;;;;3.67;2.47;;;10.90;99.90;;;;;;7393556;19;20205;-81
2022/04/06 03:13:07;;;;;;;6.37;2.83;;;10.90;99.90;;;;;;7394359;19;20158;-80
2022/04/06 03:15:33;;;;;;;6.17;3.07;;;11.00;99.90;;;;;;7393631;19;20146;-80
2022/04/06 03:17:59;;;;;;;6.43;2.87;;;10.90;99.90;;;;;;7393466;19;20592;-79
2022/04/06 03:20:25;;;;;;;9.27;3.53;;;11.00;99.90;;;;;;7391982;19;20135;-81
2022/04/06 03:22:51;;;;;;;7.77;2.87;;;10.90;99.90;;;;;;7394622;19;20134;-80
2022/04/06 03:25:16;;;;;;;7.50;3.10;;;11.00;99.90;;;;;;7392132;19;20130;-81
2022/04/06 03:27:45;;;;;;;5.37;3.13;;;11.00;99.90;;;;;;7394876;19;20590;-81
2022/04/06 03:30:11;;;;;;;6.07;2.80;;;11.10;99.90;;;;;;7403177;19;20134;-80
2022/04/06 03:32:38;;;;;;;11.40;3.20;;;11.10;99.90;;;;;;7393428;19;20149;-81
2022/04/06 03:35:06;;;;;;;5.13;2.60;;;11.10;99.90;;;;;;7392646;19;20166;-80
2022/04/06 03:37:32;;;;;;;5.50;2.97;;;11.10;99.90;;;;;;7391856;19;20133;-81
2022/04/06 03:39:58;;;;;;;3.13;2.80;;;11.10;99.90;;;;;;7393189;19;20151;-81
2022/04/06 03:42:24;;;;;;;4.10;2.87;;;11.10;99.90;;;;;;7392118;19;20127;-79
2022/04/06 03:44:50;;;;;;;4.37;3.10;;;11.00;99.90;;;;;;7391573;19;20126;-80
2022/04/06 03:47:16;;;;;;;4.97;3.00;;;11.00;99.90;;;;;;7391870;19;20139;-80
2022/04/06 03:49:42;;;;;;;3.17;2.67;;;11.00;99.90;;;;;;7399124;19;20147;-79
2022/04/06 03:52:09;;;;;;;5.33;3.03;;;10.90;99.90;;;;;;7398806;19;20126;-81
2022/04/06 03:54:34;;;;;;;8.70;2.67;;;10.90;99.90;;;;;;7391149;19;20127;-80
2022/04/06 03:57:00;;;;;;;3.97;2.80;;;10.90;99.90;;;;;;7391188;19;20477;-80
2022/04/06 03:59:26;;;;;;;7.40;3.00;;;11.00;99.90;;;;;;7392566;19;20127;-80
2022/04/06 04:01:52;;;;;;;3.50;2.70;;;11.00;99.90;;;;;;7393499;19;20123;-80
2022/04/06 04:04:18;;;;;;;5.17;2.93;;;11.00;99.90;;;;;;7391511;19;20135;-82
2022/04/06 04:06:44;;;;;;;7.17;2.87;;;11.00;99.90;;;;;;7391012;19;20186;-81
2022/04/06 04:09:09;;;;;;;5.47;2.70;;;11.00;99.90;;;;;;7397786;19;20548;-80
2022/04/06 04:11:35;;;;;;;3.47;2.90;;;11.00;99.90;;;;;;7399000;19;20151;-80
2022/04/06 04:14:01;;;;;;;6.20;3.60;;;11.00;99.90;;;;;;7405559;19;20551;-81
2022/04/06 04:16:27;;;;;;;4.63;2.80;;;11.10;99.90;;;;;;7390479;19;20152;-80
2022/04/06 04:18:53;;;;;;;4.77;2.90;;;11.20;99.90;;;;;;7391879;19;20150;-81
2022/04/06 04:21:32;;;;;;;4.50;2.60;;;11.00;99.90;;;;;;7396428;19;20209;-79
2022/04/06 04:24:05;;;;;;;4.03;2.80;;;11.10;99.90;;;;;;7397176;19;20308;-80
2022/04/06 04:26:32;;;;;;;4.70;2.77;;;11.00;99.90;;;;;;7388723;19;20142;-81
2022/04/06 04:28:58;;;;;;;3.80;2.57;;;10.90;99.90;;;;;;7389359;19;20146;-81
2022/04/06 04:31:24;;;;;;;7.37;2.87;;;11.00;99.90;;;;;;7388615;19;20160;-79
2022/04/06 04:33:49;;;;;;;5.80;3.27;;;11.00;99.90;;;;;;7397445;19;20292;-81
2022/04/06 04:36:16;;;;;;;7.80;2.97;;;11.10;99.90;;;;;;7400512;19;20134;-81
2022/04/06 04:38:43;;;;;;;4.57;2.83;;;11.10;99.90;;;;;;7391056;19;20646;-81
2022/04/06 04:41:08;;;;;;;4.57;2.40;;;11.00;99.90;;;;;;7393604;19;21152;-80
2022/04/06 04:43:35;;;;;;;8.53;2.93;;;11.00;99.90;;;;;;7391796;19;20134;-79
2022/04/06 04:46:01;;;;;;;4.13;2.70;;;11.00;99.90;;;;;;7393718;19;20146;-80
2022/04/06 04:48:27;;;;;;;6.20;2.60;;;10.90;99.90;;;;;;7392059;19;20149;-81
2022/04/06 04:51:07;;;;;;;4.30;2.83;;;11.00;99.90;;;;;;7389450;19;20210;-80
2022/04/06 04:53:33;;;;;;;4.83;2.17;;;11.00;99.90;;;;;;7389267;19;20226;-79
2022/04/06 04:55:59;;;;;;;2.77;2.37;;;11.10;99.90;;;;;;7389556;19;20170;-80
2022/04/06 04:58:27;;;;;;;3.60;2.57;;;11.10;99.90;;;;;;7398916;19;20170;-82
2022/04/06 05:00:54;;;;;;;3.00;2.70;;;11.10;99.90;;;;;;7389649;19;20174;-80
2022/04/06 05:03:20;;;;;;;3.77;2.53;;;11.10;99.90;;;;;;7389445;19;20162;-80
2022/04/06 05:05:51;;;;;;;2.80;2.40;;;11.10;99.90;;;;;;7387958;19;20470;-78
2022/04/06 05:08:17;;;;;;;4.00;2.60;;;11.00;99.90;;;;;;7388517;19;20127;-80
2022/04/06 05:10:44;;;;;;;3.37;2.53;;;11.00;99.90;;;;;;7389101;19;20158;-80
2022/04/06 05:13:10;;;;;;;2.90;2.40;;;11.10;99.90;;;;;;7393082;19;20131;-80
2022/04/06 05:15:36;;;;;;;3.60;2.77;;;11.10;99.90;;;;;;7391634;19;20227;-82
2022/04/06 05:18:01;;;;;;;3.20;2.80;;;11.00;99.90;;;;;;7394657;19;20127;-80
2022/04/06 05:20:27;;;;;;;4.37;2.50;;;11.00;99.90;;;;;;7390373;19;20625;-81
2022/04/06 05:22:53;;;;;;;3.17;2.57;;;11.00;99.90;;;;;;7389290;19;20130;-82
2022/04/06 05:25:20;;;;;;;3.27;2.63;;;11.00;99.90;;;;;;7392260;19;20158;-81
2022/04/06 05:27:52;;;;;;;4.33;2.73;;;11.10;99.90;;;;;;7390304;19;20138;-80
2022/04/06 05:30:20;;;;;;;2.87;2.40;;;11.20;99.90;;;;;;7390916;19;20138;-82
2022/04/06 05:32:48;;;;;;;2.70;2.30;;;11.20;99.90;;;;;;7392482;19;20210;-81
2022/04/06 05:35:14;;;;;;;3.90;2.73;;;11.40;99.90;;;;;;7397961;19;20597;-80
2022/04/06 05:37:42;;;;;;;6.23;2.80;;;11.20;99.90;;;;;;7393435;19;20131;-80
2022/04/06 05:40:09;;;;;;;5.17;2.70;;;11.30;99.90;;;;;;7389254;19;20135;-80
2022/04/06 05:42:37;;;;;;;5.00;2.70;;;11.30;99.90;;;;;;7390094;19;20146;-83
2022/04/06 05:45:04;;;;;;;3.70;2.80;;;11.30;99.90;;;;;;7392067;19;20149;-82
2022/04/06 05:47:30;;;;;;;4.90;2.60;;;11.20;99.90;;;;;;7390679;19;20135;-80
2022/04/06 05:49:56;;;;;;;4.40;2.30;;;11.20;99.90;;;;;;7391196;19;20141;-81
2022/04/06 05:52:23;;;;;;;2.97;2.33;;;11.20;99.90;;;;;;7391736;19;20135;-82
2022/04/06 05:54:49;;;;;;;3.87;2.63;;;11.30;99.90;;;;;;7391942;19;20162;-81
2022/04/06 05:57:15;;;;;;;3.73;2.63;;;11.30;99.90;;;;;;7404119;19;20477;-80
2022/04/06 05:59:41;;;;;;;3.77;2.53;;;11.30;99.90;;;;;;7396320;19;20155;-81
2022/04/06 06:02:07;;;;;;;4.03;2.80;;;11.30;99.90;;;;;;7393420;19;20130;-84
2022/04/06 06:04:33;;;;;;;5.13;3.03;;;11.30;99.90;;;;;;7392384;19;20153;-83
2022/04/06 06:07:00;;;;;;;3.97;2.80;;;11.30;99.90;;;;;;7392786;19;20485;-82
2022/04/06 06:09:27;;;;;;;2.80;2.50;;;11.30;99.90;;;;;;7389320;19;20142;-82
2022/04/06 06:11:54;;;;;;;4.73;2.83;;;11.40;99.90;;;;;;7392825;19;20222;-83
2022/04/06 06:14:21;;;;;;;4.10;3.20;;;11.50;99.90;;;;;;7392029;19;20205;-83
2022/04/06 06:16:47;;;;;;;6.50;4.20;;;11.50;99.90;;;;;;7391673;19;20135;-81
2022/04/06 06:19:12;;;;;;;5.83;3.53;;;11.60;99.90;;;;;;7391830;19;20178;-84
2022/04/06 06:21:38;;;;;;;8.27;4.40;;;11.60;99.90;;;;;;7396041;19;20136;-80
2022/04/06 06:24:06;;;;;;;4.70;3.47;;;11.50;99.90;;;;;;7395512;19;20594;-82
2022/04/06 06:26:36;;;;;;;6.53;4.43;;;11.50;99.90;;;;;;7390927;19;20625;-81
2022/04/06 06:29:03;;;;;;;4.83;3.60;;;11.50;99.90;;;;;;7387103;19;20170;-81
2022/04/06 06:31:30;;;;;;;4.67;4.00;;;11.50;99.90;;;;;;7388554;19;20875;-82
2022/04/06 06:33:59;;;;;;;6.10;3.53;;;11.50;99.90;;;;;;7388318;19;20147;-81
2022/04/06 06:36:25;;;;;;;4.67;3.43;;;11.50;99.90;;;;;;7387769;19;20143;-81
2022/04/06 06:38:52;;;;;;;3.33;3.00;;;11.50;99.90;;;;;;7387716;19;20162;-80
2022/04/06 06:41:19;;;;;;;4.93;3.03;;;11.50;99.90;;;;;;7391202;19;20170;-81
2022/04/06 06:43:48;;;;;;;6.33;3.20;;;11.60;99.90;;;;;;7393995;19;20296;-82
2022/04/06 06:46:19;;;;;;;4.63;3.43;;;11.70;99.90;;;;;;7388635;19;20147;-80
2022/04/06 06:48:45;;;;;;;4.47;3.03;;;11.70;99.90;;;;;;7388709;19;20155;-81
2022/04/06 06:51:11;;;;;;;9.10;3.33;;;11.60;99.90;;;;;;7389529;19;20135;-80
2022/04/06 06:53:37;;;;;;;4.97;3.20;;;11.70;99.90;;;;;;7389679;19;20126;-81
2022/04/06 06:56:03;;;;;;;6.30;3.03;;;11.80;99.90;;;;;;7394585;19;20162;-81
2022/04/06 06:58:30;;;;;;;4.57;3.10;;;11.80;99.90;;;;;;7396728;19;20141;-81
2022/04/06 07:00:56;;;;;;;3.70;3.00;;;11.80;99.90;;;;;;7394568;19;20501;-82
2022/04/06 07:03:22;;;;;;;7.17;3.37;;;11.90;99.90;;;;;;7394483;19;20122;-80
2022/04/06 07:05:48;;;;;;;8.00;3.20;;;12.00;99.90;;;;;;7398081;19;20743;-81
2022/04/06 07:08:14;;;;;;;3.80;2.97;;;12.00;99.90;;;;;;7399275;19;20162;-82
2022/04/06 07:10:45;;;;;;;4.23;2.93;;;12.00;99.90;;;;;;7396021;19;20139;-80
2022/04/06 07:13:16;;;;;;;7.37;5.20;;;12.00;99.90;;;;;;7394082;19;20130;-81
2022/04/06 07:15:42;;;;;;;4.43;3.13;;;12.00;99.90;;;;;;7394331;19;20210;-81
2022/04/06 07:18:09;;;;;;;4.53;3.60;;;12.20;99.90;;;;;;7393802;19;20133;-81
2022/04/06 07:20:37;;;;;;;4.07;2.37;;;12.00;99.90;;;;;;7393858;19;20123;-82
2022/04/06 07:23:06;;;;;;;2.63;1.93;;;12.00;99.90;;;;;;7396250;19;20144;-81
2022/04/06 07:25:33;;;;;;;4.50;2.07;;;12.00;99.90;;;;;;7393233;19;20122;-82
2022/04/06 07:28:02;;;;;;;3.60;2.30;;;12.10;99.90;;;;;;7394881;19;20150;-81
2022/04/06 07:30:28;;;;;;;4.37;2.37;;;12.20;99.90;;;;;;7398584;19;20139;-80
2022/04/06 07:32:54;;;;;;;4.03;2.90;;;12.20;99.90;;;;;;7401566;19;20574;-82
2022/04/06 07:35:20;;;;;;;4.07;3.20;;;12.10;99.90;;;;;;7396672;19;20609;-83
2022/04/06 07:37:48;;;;;;;5.20;3.80;;;12.20;99.90;;;;;;7393067;19;20175;-81
2022/04/06 07:40:16;;;;;;;5.90;3.10;;;12.20;99.90;;;;;;7395763;19;20142;-80
2022/04/06 07:42:42;;;;;;;7.03;3.20;;;12.20;99.90;;;;;;7400698;19;20514;-82
2022/04/06 07:45:13;;;;;;;3.20;2.80;;;12.40;99.90;;;;;;7393563;19;20119;-82
2022/04/06 07:47:40;;;;;;;6.47;4.57;;;12.30;99.90;;;;;;7394386;19;20607;-80
2022/04/06 07:50:08;;;;;;;4.77;2.20;;;12.20;99.90;;;;;;7394617;19;20137;-80
2022/04/06 07:52:35;;;;;;;6.77;3.87;;;12.20;99.90;;;;;;7396280;19;20142;-80
2022/04/06 07:55:02;;;;;;;5.50;3.90;;;12.20;99.90;;;;;;7396600;19;20150;-80
2022/04/06 07:57:30;;;;;;;6.83;3.90;;;12.30;99.90;;;;;;7394019;19;20134;-81
2022/04/06 07:59:56;;;;;;;2.47;1.90;;;12.40;99.90;;;;;;7392480;19;20218;-80
2022/04/06 08:02:22;;;;;;;8.10;5.30;;;12.70;99.90;;;;;;7391950;19;20443;-80
2022/04/06 08:04:50;;;;;;;6.37;2.57;;;12.80;99.90;;;;;;7393546;19;20133;-80
2022/04/06 08:07:25;;;;;;;3.00;1.80;;;12.90;99.90;;;;;;7389526;19;20142;-81
2022/04/06 08:09:51;;;;;;;1.90;1.00;;;12.80;99.90;;;;;;7392862;19;20242;-81
2022/04/06 08:12:17;;;;;;;1.90;1.13;;;12.90;99.90;;;;;;7392028;19;20241;-81
2022/04/06 08:14:42;;;;;;;1.40;1.30;;;12.90;99.90;;;;;;7393810;19;20158;-81
2022/04/06 08:17:08;;;;;;;3.67;1.57;;;13.00;99.90;;;;;;7401626;19;20142;-80
2022/04/06 08:19:34;;;;;;;3.03;1.60;;;13.50;99.90;;;;;;7396160;19;20130;-81
2022/04/06 08:22:00;;;;;;;3.33;1.60;;;13.60;99.90;;;;;;7392447;19;20142;-81
2022/04/06 08:24:27;;;;;;;3.60;1.50;;;13.70;99.90;;;;;;7392455;19;20142;-81
2022/04/06 08:26:53;;;;;;;7.70;1.17;;;13.50;99.90;;;;;;7390659;19;20150;-80
2022/04/06 08:29:19;;;;;;;1.07;0.97;;;13.60;99.90;;;;;;7390073;19;20215;-80
2022/04/06 08:31:51;;;;;;;1.05;0.85;;;13.70;99.90;;;;;;7389738;19;20166;-82
2022/04/06 08:34:16;;;;;;;1.73;1.40;;;13.60;99.90;;;;;;7393388;19;20131;-81
2022/04/06 08:36:44;;;;;;;1.30;0.90;;;13.60;99.90;;;;;;7391752;19;20551;-80
2022/04/06 08:39:10;;;;;;;2.77;1.77;;;13.80;99.90;;;;;;7399877;19;20169;-81
2022/04/06 08:41:36;;;;;;;1.53;1.40;;;14.00;99.90;;;;;;7398079;19;20150;-82
2022/04/06 08:44:02;;;;;;;1.63;0.95;;;14.10;99.90;;;;;;7397254;19;20524;-81
2022/04/06 08:46:39;;;;;;;3.90;1.08;;;14.00;99.90;;;;;;7394275;19;20181;-81
2022/04/06 08:49:05;;;;;;;1.63;0.90;;;14.10;99.90;;;;;;7393609;19;20669;-81
2022/04/06 08:51:34;;;;;;;1.17;0.80;;;14.00;99.90;;;;;;7392169;19;20157;-80
2022/04/06 08:54:00;;;;;;;1.10;0.73;;;14.00;99.90;;;;;;7392359;19;20154;-81
2022/04/06 08:56:26;;;;;;;0.97;0.70;;;13.70;99.90;;;;;;7394208;19;20460;-82
2022/04/06 08:58:52;;;;;;;0.60;0.50;;;13.80;99.90;;;;;;7400571;19;20146;-81
2022/04/06 09:01:21;;;;;;;0.50;0.50;;;14.10;99.90;;;;;;7392426;19;20509;-81
2022/04/06 09:03:49;;;;;;;0.70;0.50;;;14.60;99.90;;;;;;7390500;19;20134;-78
2022/04/06 09:06:18;;;;;;;0.63;0.50;;;15.10;99.90;;;;;;7389671;19;20147;-80
2022/04/06 09:08:47;;;;;;;0.80;0.40;;;15.20;99.90;;;;;;7392627;19;20135;-80
2022/04/06 09:11:20;;;;;;;0.63;0.50;;;14.90;99.90;;;;;;7393151;19;20158;-79
2022/04/06 09:14:00;;;;;;;1.45;0.50;;;14.80;99.90;;;;;;7391337;19;20127;-81
2022/04/06 09:16:31;;;;;;;2.65;0.80;;;14.70;99.90;;;;;;7390049;19;20142;-80
2022/04/06 09:19:13;;;;;;;0.85;0.52;;;14.70;99.90;;;;;;7392560;19;20130;-80
2022/04/06 09:21:43;;;;;;;2.00;1.13;;;14.70;99.90;;;;;;7390299;19;20593;-78
2022/04/06 09:24:17;;;;;;;0.52;0.50;;;14.70;99.90;;;;;;7398324;19;20127;-81
2022/04/06 09:26:43;;;;;;;0.75;0.45;;;14.80;99.90;;;;;;7390447;19;20206;-81
2022/04/06 09:29:13;;;;;;;0.47;0.40;;;15.10;99.90;;;;;;7389340;19;20932;-80
2022/04/06 09:31:40;;;;;;;1.33;0.80;;;15.50;99.90;;;;;;7392128;19;20135;-81
2022/04/06 09:34:12;;;;;;;0.50;0.50;;;15.60;99.90;;;;;;7392190;19;20270;-79
2022/04/06 09:36:38;;;;;;;1.35;0.50;;;15.60;99.90;;;;;;7389116;19;20127;-80
2022/04/06 09:39:05;;;;;;;0.55;0.47;;;15.40;99.90;;;;;;7394073;19;20152;-80
2022/04/06 09:41:33;;;;;;;0.30;0.30;;;15.00;99.90;;;;;;7396028;19;20210;-81
2022/04/06 09:47:38;;;;;;;1.40;0.82;;;14.80;99.90;;;;;;7394074;19;20197;-81
2022/04/06 09:50:22;;;;;;;0.40;0.40;;;15.00;99.90;;;;;;7388179;19;20171;-80
2022/04/06 09:52:51;;;;;;;0.80;0.50;;;15.20;99.90;;;;;;7389677;19;20206;-81
2022/04/06 09:55:21;;;;;;;2.35;0.70;;;15.40;99.90;;;;;;7390608;19;20158;-80
2022/04/06 09:57:53;;;;;;;0.82;0.50;;;15.40;99.90;;;;;;7388488;19;20145;-82
2022/04/06 10:00:24;;;;;;;0.45;0.35;;;15.30;99.90;;;;;;7389077;19;20138;-80
2022/04/06 10:03:04;;;;;;;2.28;0.90;;;15.30;99.90;;;;;;7390811;19;20150;-81
2022/04/06 10:05:31;;;;;;;2.33;1.70;;;15.30;99.90;;;;;;7395223;19;21177;-81
2022/04/06 10:08:07;;;;;;;0.40;0.40;;;15.20;99.90;;;;;;7391489;19;20131;-80
2022/04/06 10:10:35;;;;;;;2.70;1.77;;;15.40;99.90;;;;;;7388359;19;20138;-80
2022/04/06 10:13:05;;;;;;;1.88;0.50;;;15.20;99.90;;;;;;7388400;19;20135;-80
2022/04/06 10:15:31;;;;;;;1.77;1.30;;;15.20;99.90;;;;;;7390197;19;20460;-80
2022/04/06 10:18:00;;;;;;;1.02;0.95;;;15.50;99.90;;;;;;7388430;19;20131;-79
2022/04/06 10:20:50;;;;;;;0.80;0.70;;;15.50;99.90;;;;;;7389118;19;20151;-82
2022/04/06 10:23:19;;;;;;;1.05;0.90;;;15.50;99.90;;;;;;7393327;19;20130;-81
2022/04/06 10:26:10;;;;;;;1.02;0.52;;;15.50;99.90;;;;;;7399884;19;20131;-80
2022/04/06 10:28:38;;;;;;;0.35;0.35;;;15.30;99.90;;;;;;7399100;19;20290;-80
2022/04/06 10:31:22;;;;;;;0.40;0.30;;;15.10;99.90;;;;;;7396535;19;20574;-81
2022/04/06 10:34:13;;;;;;;2.60;0.45;;;15.10;99.90;;;;;;7397714;19;20134;-81
2022/04/06 10:36:41;;;;;;;4.00;0.60;;;15.30;99.90;;;;;;7396039;19;20131;-82
2022/04/06 10:39:07;;;;;;;1.60;0.80;;;15.80;99.90;;;;;;7397426;19;20147;-82
2022/04/06 10:41:34;;;;;;;0.68;0.55;;;15.90;99.90;;;;;;7400762;19;20157;-81
2022/04/06 10:44:01;;;;;;;0.60;0.50;;;15.90;99.90;;;;;;7396604;19;20146;-81
2022/04/06 10:46:38;;;;;;;1.95;0.63;;;15.90;99.90;;;;;;7401335;19;20119;-79
2022/04/06 10:49:10;;;;;;;1.13;0.40;;;15.90;99.90;;;;;;7395974;19;20603;-81
2022/04/06 10:51:39;;;;;;;1.63;1.25;;;15.90;99.90;;;;;;7396234;19;20131;-82
2022/04/06 10:54:14;;;;;;;3.72;0.60;;;15.80;99.90;;;;;;7395012;19;20155;-81
2022/04/06 10:56:49;;;;;;;0.57;0.45;;;15.80;99.90;;;;;;7395920;19;20126;-81
2022/04/06 10:59:19;;;;;;;2.22;0.60;;;16.00;99.90;;;;;;7396027;19;20481;-81
2022/04/06 11:01:48;;;;;;;0.43;0.40;;;16.10;99.90;;;;;;7394686;19;20230;-80
2022/04/06 11:04:22;;;;;;;1.83;0.50;;;16.20;99.90;;;;;;7395080;19;20135;-80
2022/04/06 11:06:56;;;;;;;1.10;0.70;;;16.40;99.90;;;;;;7401550;19;20599;-80
2022/04/06 11:12:15;;;;;;;0.70;0.60;;;16.60;99.90;;;;;;7396077;19;20168;-80
2022/04/06 11:14:44;;;;;;;3.00;1.73;;;16.50;99.90;;;;;;7397772;19;20131;-81
2022/04/06 11:17:32;;;;;;;3.25;0.90;;;16.40;99.90;;;;;;7394388;19;20133;-80
2022/04/06 11:20:02;;;;;;;1.08;0.90;;;16.30;99.90;;;;;;7397998;19;20137;-81
2022/04/06 11:22:28;;;;;;;0.60;0.60;;;16.10;99.90;;;;;;7397498;19;20591;-81
2022/04/06 11:24:55;;;;;;;1.45;0.90;;;16.20;99.90;;;;;;7394711;19;20257;-81
2022/04/06 11:27:33;;;;;;;2.22;0.80;;;16.00;99.90;;;;;;7391182;19;20230;-81
2022/04/06 11:30:13;;;;;;;1.85;0.80;;;15.80;99.90;;;;;;7401222;19;20145;-81
2022/04/06 11:32:49;;;;;;;3.97;0.80;;;15.60;99.90;;;;;;7394819;19;20139;-82
2022/04/06 11:35:16;;;;;;;1.73;1.02;;;15.80;99.90;;;;;;7394287;19;20833;-81
2022/04/06 11:37:49;;;;;;;1.88;1.13;;;15.90;99.90;;;;;;7393431;19;20115;-81
2022/04/06 11:40:17;;;;;;;1.75;1.05;;;16.10;99.90;;;;;;7395699;19;20199;-81
2022/04/06 11:42:57;;;;;;;0.40;0.38;;;16.20;99.90;;;;;;7397773;19;20126;-82
2022/04/06 11:45:30;;;;;;;0.40;0.40;;;16.20;99.90;;;;;;7393770;19;20143;-82
2022/04/06 11:48:01;;;;;;;4.25;0.65;;;16.10;99.90;;;;;;7395419;19;20589;-81
2022/04/06 11:50:29;;;;;;;0.85;0.43;;;16.20;99.90;;;;;;7401258;19;20118;-81
2022/04/06 11:52:59;;;;;;;0.90;0.40;;;16.40;99.90;;;;;;7400573;19;20122;-81
2022/04/06 11:55:47;;;;;;;0.63;0.50;;;16.40;99.90;;;;;;7392879;19;20214;-80
2022/04/06 11:58:32;;;;;;;0.40;0.40;;;16.30;99.90;;;;;;7394210;19;20247;-81
2022/04/06 12:00:59;;;;;;;0.68;0.50;;;16.30;99.90;;;;;;7394233;19;20148;-81
2022/04/06 12:03:29;;;;;;;0.77;0.35;;;16.30;99.90;;;;;;7393182;19;20151;-81
2022/04/06 12:05:55;;;;;;;0.30;0.30;;;16.60;99.90;;;;;;7394222;19;20157;-80
2022/04/06 12:08:27;;;;;;;0.57;0.30;;;16.80;99.90;;;;;;7394267;19;20134;-81
2022/04/06 12:10:58;;;;;;;0.35;0.35;;;16.80;99.90;;;;;;7395225;19;20792;-81
2022/04/06 12:13:28;;;;;;;0.50;0.40;;;16.70;99.90;;;;;;7401977;19;20150;-80
2022/04/06 12:15:55;;;;;;;0.73;0.50;;;16.60;99.90;;;;;;7391854;19;20135;-80
2022/04/06 12:18:23;;;;;;;0.80;0.50;;;16.70;99.90;;;;;;7391891;19;20134;-80
2022/04/06 12:20:52;;;;;;;3.50;0.40;;;16.90;99.90;;;;;;7391337;19;20170;-81
2022/04/06 12:23:20;;;;;;;0.77;0.50;;;17.00;99.90;;;;;;7394285;19;20138;-80
2022/04/06 12:25:56;;;;;;;1.48;0.40;;;17.00;99.90;;;;;;7390966;19;20142;-80
2022/04/06 12:28:24;;;;;;;0.68;0.60;;;17.30;99.90;;;;;;7389721;19;20151;-79
2022/04/06 12:30:51;;;;;;;1.10;0.60;;;17.00;99.90;;;;;;7391888;19;20143;-80
2022/04/06 12:33:45;;;;;;;0.95;0.50;;;17.10;99.90;;;;;;7392193;19;20138;-82
2022/04/06 12:36:12;;;;;;;1.48;0.50;;;17.40;99.90;;;;;;7397087;19;20138;-80
2022/04/06 12:38:40;;;;;;;0.77;0.50;;;17.70;99.90;;;;;;7391793;19;20146;-80
2022/04/06 12:41:14;;;;;;;0.30;0.30;;;17.50;99.90;;;;;;7395062;19;20133;-81
2022/04/06 12:43:43;;;;;;;1.30;0.40;;;17.60;99.50;;;;;;7392574;19;20134;-81
2022/04/06 12:46:09;;;;;;;0.30;0.30;;;17.50;98.70;;;;;;7389391;19;20151;-81
2022/04/06 12:48:35;;;;;;;1.85;0.40;;;17.50;99.20;;;;;;7392501;19;20127;-79
2022/04/06 12:51:21;;;;;;;0.93;0.40;;;17.70;98.90;;;;;;7390847;19;20635;-80
2022/04/06 12:53:49;;;;;;;0.38;0.38;;;17.70;98.90;;;;;;7391487;19;20621;-81
2022/04/06 12:56:15;;;;;;;0.93;0.40;;;17.80;99.50;;;;;;7390049;19;20135;-78
2022/04/06 12:58:42;;;;;;;0.40;0.40;;;17.80;99.00;;;;;;7394688;19;20131;-80
2022/04/06 13:01:09;;;;;;;0.47;0.40;;;17.70;98.80;;;;;;7393112;19;20130;-79
2022/04/06 13:03:36;;;;;;;0.77;0.50;;;17.90;98.90;;;;;;7391766;19;20147;-79